Terminal Aerodrome Forecast
Issued by NWS Blacksburg, VA

Home | Current Version | Previous Version | Text Only | Print | Product List | Glossary On
Versions: 1 2 3 4 5 6 7 8 9 10 11 12 13 14 15 16 17 18 19 20 21 22
675
FTUS41 KRNK 251136
TAFLYH
TAF
KLYH 251136Z 2512/2612 22006KT P6SM OVC200
     FM251500 22009G18KT P6SM SCT060 OVC200
     FM260000 19006KT P6SM SCT050 OVC200
     FM260900 19005KT P6SM OVC015=

USA.gov is the U.S. government's official web portal to all federal, state and local government web resources and services.